createdAt,value
2022-09-23T00:00:40.136Z,3.52
2022-09-23T00:02:58.552Z,3.46
2022-09-23T00:05:16.596Z,3.43
2022-09-23T00:07:36.032Z,3.36
2022-09-23T00:09:57.634Z,3.33
2022-09-23T00:12:13.174Z,3.28
2022-09-23T00:14:28.783Z,3.33
2022-09-23T00:16:44.413Z,3.33
2022-09-23T00:18:59.964Z,3.34
2022-09-23T00:21:15.505Z,3.30
2022-09-23T00:23:31.108Z,3.30
2022-09-23T00:25:46.700Z,3.34
2022-09-23T00:28:02.278Z,3.34
2022-09-23T00:30:17.898Z,3.43
2022-09-23T00:32:33.451Z,3.44
2022-09-23T00:34:49.038Z,3.36
2022-09-23T00:37:03.614Z,3.34
2022-09-23T00:39:19.211Z,3.27
2022-09-23T00:41:34.812Z,3.24
2022-09-23T00:43:50.375Z,3.15
2022-09-23T00:46:08.522Z,3.12
2022-09-23T00:48:23.027Z,3.12
2022-09-23T00:50:37.594Z,3.12
2022-09-23T00:52:50.725Z,3.13
2022-09-23T00:55:04.291Z,3.16
2022-09-23T00:57:19.867Z,3.18
2022-09-23T00:59:34.294Z,3.18
2022-09-23T01:01:48.100Z,3.15
2022-09-23T01:04:03.661Z,3.12
2022-09-23T01:06:20.065Z,3.12
2022-09-23T01:08:35.800Z,3.10
2022-09-23T01:10:53.883Z,3.09
2022-09-23T01:13:12.042Z,3.07
2022-09-23T01:15:33.660Z,3.07
2022-09-23T01:17:51.701Z,3.05
2022-09-23T01:20:09.801Z,3.05
2022-09-23T01:22:27.891Z,3.02
2022-09-23T01:24:45.985Z,2.95
2022-09-23T01:27:07.097Z,2.88
2022-09-23T01:29:25.167Z,2.88
2022-09-23T01:31:41.727Z,2.89
2022-09-23T01:34:00.663Z,2.89
2022-09-23T01:36:17.984Z,2.81
2022-09-23T01:38:36.008Z,2.71
2022-09-23T01:40:54.125Z,2.74
2022-09-23T01:43:12.171Z,2.74
2022-09-23T01:45:26.758Z,2.77
2022-09-23T01:47:44.852Z,2.82
2022-09-23T01:49:59.456Z,2.81
2022-09-23T01:52:15.932Z,2.77
2022-09-23T01:54:36.107Z,2.74
2022-09-23T01:56:57.194Z,2.76
2022-09-23T01:59:15.294Z,2.77
2022-09-23T02:01:33.463Z,2.74
2022-09-23T02:03:48.967Z,2.76
2022-09-23T02:06:04.546Z,2.77
2022-09-23T02:08:17.627Z,2.69
2022-09-23T02:10:31.210Z,2.67
2022-09-23T02:12:46.804Z,2.63
2022-09-23T02:15:02.400Z,2.63
2022-09-23T02:17:17.976Z,2.61
2022-09-23T02:19:36.048Z,2.56
2022-09-23T02:21:52.618Z,2.55
2022-09-23T02:24:08.225Z,2.51
2022-09-23T02:26:26.272Z,2.49
2022-09-23T02:28:44.366Z,2.46
2022-09-23T02:31:02.473Z,2.46
2022-09-23T02:33:18.054Z,2.45
2022-09-23T02:35:32.660Z,2.44
2022-09-23T02:37:48.291Z,2.38
2022-09-23T02:40:06.429Z,2.40
2022-09-23T02:42:21.996Z,2.41
2022-09-23T02:44:40.034Z,2.38
2022-09-23T02:46:58.208Z,2.37
2022-09-23T02:49:14.705Z,2.31
2022-09-23T02:51:35.783Z,2.26
2022-09-23T02:53:52.213Z,2.19
2022-09-23T02:56:07.042Z,2.20
2022-09-23T02:58:24.531Z,2.19
2022-09-23T03:00:41.685Z,2.19
2022-09-23T03:02:57.349Z,2.13
2022-09-23T03:05:15.362Z,2.09
2022-09-23T03:07:30.982Z,2.08
2022-09-23T03:09:44.565Z,2.17
2022-09-23T03:12:02.614Z,2.19
2022-09-23T03:14:18.053Z,2.19
2022-09-23T03:16:32.863Z,2.20
2022-09-23T03:18:53.411Z,2.16
2022-09-23T03:21:07.998Z,2.22
2022-09-23T03:23:26.070Z,2.23
2022-09-23T03:25:41.722Z,2.19
2022-09-23T03:27:57.235Z,2.22
2022-09-23T03:30:12.833Z,2.19
2022-09-23T03:32:31.788Z,2.20
2022-09-23T03:34:49.074Z,2.16
2022-09-23T03:37:07.094Z,2.16
2022-09-23T03:39:22.687Z,2.19
2022-09-23T03:41:38.291Z,2.15
2022-09-23T03:43:51.883Z,2.13
2022-09-23T03:46:07.491Z,2.10
2022-09-23T03:48:25.522Z,2.09
2022-09-23T03:50:41.130Z,2.02
2022-09-23T03:52:59.185Z,2.02
2022-09-23T03:55:14.828Z,2.02
2022-09-23T03:57:27.898Z,2.06
2022-09-23T03:59:48.490Z,1.98
2022-09-23T04:02:04.104Z,1.98
2022-09-23T04:04:17.665Z,1.98
2022-09-23T04:06:33.296Z,1.97
2022-09-23T04:08:48.834Z,1.94
2022-09-23T04:11:04.442Z,1.94
2022-09-23T04:13:19.982Z,1.89
2022-09-23T04:15:35.586Z,1.93
2022-09-23T04:17:51.189Z,1.91
2022-09-23T04:20:09.253Z,1.87
2022-09-23T04:22:24.859Z,1.82
2022-09-23T04:24:39.436Z,1.82
2022-09-23T04:26:57.519Z,1.82
2022-09-23T04:29:13.129Z,1.79
2022-09-23T04:31:28.786Z,1.75
2022-09-23T04:33:46.768Z,1.75
2022-09-23T04:36:02.374Z,1.75
2022-09-23T04:38:17.922Z,1.71
2022-09-23T04:40:31.638Z,1.71
2022-09-23T04:42:52.160Z,1.75
2022-09-23T04:45:07.706Z,1.75
2022-09-23T04:47:23.285Z,1.73
2022-09-23T04:49:41.447Z,1.65
2022-09-23T04:51:55.027Z,1.54
2022-09-23T04:54:10.549Z,1.47
2022-09-23T04:56:26.166Z,1.46
2022-09-23T04:58:42.558Z,1.54
2022-09-23T05:00:59.530Z,1.54
2022-09-23T05:03:14.314Z,1.57
2022-09-23T05:05:30.953Z,1.65
2022-09-23T05:07:46.541Z,1.68
2022-09-23T05:10:02.119Z,1.65
2022-09-23T05:12:14.234Z,1.65
2022-09-23T05:14:27.336Z,1.68
2022-09-23T05:16:42.959Z,1.75
2022-09-23T05:18:58.467Z,1.75
2022-09-23T05:21:19.066Z,1.78
2022-09-23T05:23:32.651Z,1.75
2022-09-23T05:25:48.258Z,1.82
2022-09-23T05:28:03.847Z,1.83
2022-09-23T05:30:19.412Z,1.90
2022-09-23T05:32:33.470Z,2.01
2022-09-23T05:34:48.548Z,2.06
2022-09-23T05:37:04.146Z,2.10
2022-09-23T05:39:22.213Z,2.17
2022-09-23T05:41:37.892Z,2.26
2022-09-23T05:43:50.909Z,2.37
2022-09-23T05:46:08.146Z,2.49
2022-09-23T05:48:21.083Z,2.56
2022-09-23T05:50:35.463Z,2.66
2022-09-23T05:52:51.045Z,2.76
2022-09-23T05:55:05.604Z,2.84
2022-09-23T05:57:20.194Z,2.94
2022-09-23T05:59:35.775Z,3.03
2022-09-23T06:01:56.413Z,3.10
2022-09-23T06:04:07.803Z,3.20
2022-09-23T06:06:22.989Z,3.23
2022-09-23T06:08:35.133Z,3.31
2022-09-23T06:10:54.301Z,3.44
2022-09-23T06:13:06.282Z,3.53
2022-09-23T06:15:19.861Z,3.64
2022-09-23T06:17:32.939Z,3.76
2022-09-23T06:19:49.380Z,3.88
2022-09-23T06:22:04.147Z,4.12
2022-09-23T06:24:22.306Z,4.29
2022-09-23T06:26:35.561Z,4.37
2022-09-23T06:28:50.866Z,4.43
2022-09-23T06:31:10.866Z,4.54
2022-09-23T06:33:33.726Z,4.70
2022-09-23T06:35:35.639Z,4.84
2022-09-23T06:37:52.057Z,5.02
2022-09-23T06:40:09.770Z,5.19
2022-09-23T06:42:24.895Z,5.35
2022-09-23T06:44:40.505Z,5.60
2022-09-23T06:46:56.150Z,5.83
2022-09-23T06:49:11.631Z,6.03
2022-09-23T06:51:25.272Z,6.28
2022-09-23T06:53:39.830Z,6.48
2022-09-23T06:55:52.762Z,6.65
2022-09-23T06:58:05.487Z,6.76
2022-09-23T07:00:19.077Z,6.89
2022-09-23T07:02:34.893Z,6.99
2022-09-23T07:04:47.756Z,7.09
2022-09-23T07:07:00.847Z,7.20
2022-09-23T07:09:14.407Z,7.41
2022-09-23T07:11:27.496Z,7.56
2022-09-23T07:13:43.071Z,7.74
2022-09-23T07:16:01.180Z,7.82
2022-09-23T07:18:17.754Z,7.96
2022-09-23T07:20:32.313Z,8.07
2022-09-23T07:22:46.226Z,8.15
2022-09-23T07:25:00.963Z,8.30
2022-09-23T07:27:16.547Z,8.40
2022-09-23T07:29:43.605Z,8.55
2022-09-23T07:30:33.099Z,8.63
2022-09-23T07:32:49.148Z,8.78
2022-09-23T07:35:03.298Z,8.96
2022-09-23T07:37:21.367Z,9.10
2022-09-23T07:39:36.962Z,9.20
2022-09-23T07:42:07.112Z,9.21
2022-09-23T07:44:21.102Z,9.30
2022-09-23T07:46:39.277Z,9.38
2022-09-23T07:48:57.294Z,9.49
2022-09-23T07:51:15.351Z,9.64
2022-09-23T07:53:31.002Z,9.81
2022-09-23T07:55:51.328Z,9.97
2022-09-23T07:58:06.953Z,10.10
2022-09-23T08:00:22.681Z,10.22
2022-09-23T08:02:40.650Z,10.36
2022-09-23T08:04:59.220Z,10.46
2022-09-23T08:07:16.821Z,10.65
2022-09-23T08:09:35.043Z,10.83
2022-09-23T08:11:51.434Z,11.03
2022-09-23T08:14:04.542Z,11.27
2022-09-23T08:16:20.195Z,11.53
2022-09-23T08:18:38.335Z,11.67
2022-09-23T08:20:53.786Z,11.77
2022-09-23T08:23:14.381Z,11.80
2022-09-23T08:25:34.598Z,11.87
2022-09-23T08:27:48.872Z,11.99
2022-09-23T08:30:08.611Z,12.04
2022-09-23T08:32:26.747Z,12.19
2022-09-23T08:34:42.312Z,12.16
2022-09-23T08:37:00.416Z,12.23
2022-09-23T08:39:13.474Z,12.20
2022-09-23T08:41:31.566Z,12.33
2022-09-23T08:43:49.644Z,12.49
2022-09-23T08:46:07.783Z,12.57
2022-09-23T08:48:23.324Z,12.62
2022-09-23T08:50:36.384Z,12.74
2022-09-23T08:52:51.970Z,12.87
2022-09-23T08:55:06.535Z,13.07
2022-09-23T08:57:24.747Z,13.20
2022-09-23T08:59:38.253Z,13.32
2022-09-23T09:01:56.303Z,13.47
2022-09-23T09:04:12.680Z,13.59
2022-09-23T09:06:29.263Z,13.65
2022-09-23T09:08:47.194Z,13.69
2022-09-23T09:11:07.675Z,13.70
2022-09-23T09:13:25.796Z,13.79
2022-09-23T09:15:42.352Z,13.88
2022-09-23T09:17:55.963Z,13.96
2022-09-23T09:20:11.538Z,14.12
2022-09-23T09:22:27.257Z,14.32
2022-09-23T09:24:45.178Z,14.53
2022-09-23T09:27:03.219Z,14.72
2022-09-23T09:29:35.816Z,14.94
2022-09-23T09:30:19.775Z,15.03
2022-09-23T09:32:36.904Z,15.26
2022-09-23T09:34:51.444Z,15.45
2022-09-23T09:37:07.891Z,15.74
2022-09-23T09:39:26.075Z,15.97
2022-09-23T09:41:38.194Z,15.96
2022-09-23T09:43:56.306Z,16.03
2022-09-23T09:46:11.915Z,16.16
2022-09-23T09:48:27.473Z,16.33
2022-09-23T09:50:45.564Z,16.44
2022-09-23T09:52:58.612Z,16.68
2022-09-23T09:55:12.712Z,16.59
2022-09-23T09:57:32.094Z,16.74
2022-09-23T09:59:43.330Z,16.73
2022-09-23T10:01:58.926Z,16.88
2022-09-23T10:04:12.563Z,17.00
2022-09-23T10:06:28.115Z,17.15
2022-09-23T10:08:43.707Z,17.25
2022-09-23T10:10:56.726Z,17.29
2022-09-23T10:13:12.322Z,17.47
2022-09-23T10:15:27.870Z,17.67
2022-09-23T10:17:43.461Z,17.59
2022-09-23T10:19:57.872Z,17.69
2022-09-23T10:22:09.127Z,17.84
2022-09-23T10:24:22.228Z,17.89
2022-09-23T10:26:36.770Z,18.09
2022-09-23T10:28:52.350Z,18.12
2022-09-23T10:31:05.953Z,18.13
2022-09-23T10:33:20.379Z,18.18
2022-09-23T10:35:33.127Z,18.06
2022-09-23T10:37:48.694Z,17.79
2022-09-23T10:40:00.808Z,17.84
2022-09-23T10:42:12.889Z,17.87
2022-09-23T10:44:24.979Z,17.91
2022-09-23T10:46:37.537Z,18.04
2022-09-23T10:48:50.984Z,18.06
2022-09-23T10:51:03.212Z,18.06
2022-09-23T10:53:15.295Z,18.12
2022-09-23T10:55:28.892Z,18.07
2022-09-23T10:57:42.505Z,18.18
2022-09-23T10:59:54.559Z,18.39
2022-09-23T11:02:06.652Z,18.34
2022-09-23T11:04:18.779Z,18.55
2022-09-23T11:06:31.840Z,18.72
2022-09-23T11:08:43.957Z,18.61
2022-09-23T11:10:57.986Z,18.34
2022-09-23T11:13:10.063Z,18.17
2022-09-23T11:15:23.143Z,18.18
2022-09-23T11:17:36.216Z,18.00
2022-09-23T11:19:48.316Z,18.03
2022-09-23T11:22:08.120Z,17.94
2022-09-23T11:24:15.961Z,17.84
2022-09-23T11:26:33.079Z,17.73
2022-09-23T11:28:41.623Z,17.71
2022-09-23T11:30:55.297Z,17.64
2022-09-23T11:33:08.301Z,17.64
2022-09-23T11:35:21.866Z,17.67
2022-09-23T11:37:33.946Z,17.63
2022-09-23T11:39:47.024Z,17.67
2022-09-23T11:42:00.637Z,17.78
2022-09-23T11:44:12.729Z,17.87
2022-09-23T11:46:25.844Z,17.81
2022-09-23T11:48:38.892Z,17.79
2022-09-23T11:50:54.472Z,17.64
2022-09-23T11:53:08.084Z,17.70
2022-09-23T11:55:23.211Z,17.64
2022-09-23T11:57:45.160Z,17.67
2022-09-23T11:58:34.267Z,17.63
2022-09-23T12:00:49.607Z,17.55
2022-09-23T12:03:04.848Z,17.54
2022-09-23T12:05:10.518Z,17.54
2022-09-23T12:07:22.511Z,17.54
2022-09-23T12:09:57.172Z,17.43
2022-09-23T12:11:46.689Z,17.46
2022-09-23T12:13:59.801Z,17.41
2022-09-23T12:16:13.384Z,17.47
2022-09-23T12:18:28.925Z,17.44
2022-09-23T12:20:42.547Z,17.41
2022-09-23T12:22:56.101Z,17.53
2022-09-23T12:25:09.165Z,17.51
2022-09-23T12:27:21.290Z,17.55
2022-09-23T12:29:34.870Z,17.51
2022-09-23T12:31:47.410Z,17.33
2022-09-23T12:33:59.078Z,17.33
2022-09-23T12:36:12.648Z,17.28
2022-09-23T12:38:24.739Z,17.26
2022-09-23T12:40:39.338Z,17.22
2022-09-23T12:42:50.457Z,17.17
2022-09-23T12:45:06.039Z,17.20
2022-09-23T12:47:18.154Z,17.22
2022-09-23T12:49:30.229Z,17.20
2022-09-23T12:51:43.304Z,17.18
2022-09-23T12:53:56.450Z,17.20
2022-09-23T12:56:08.504Z,17.26
2022-09-23T12:58:20.613Z,17.32
2022-09-23T13:00:34.395Z,17.32
2022-09-23T13:02:46.280Z,17.30
2022-09-23T13:04:59.922Z,17.25
2022-09-23T13:07:11.951Z,17.26
2022-09-23T13:09:24.047Z,17.32
2022-09-23T13:11:37.655Z,17.33
2022-09-23T13:13:51.212Z,17.28
2022-09-23T13:16:04.372Z,17.28
2022-09-23T13:18:16.368Z,17.26
2022-09-23T13:20:31.946Z,17.15
2022-09-23T13:22:44.029Z,17.11
2022-09-23T13:24:57.616Z,17.11
2022-09-23T13:27:11.247Z,17.14
2022-09-23T13:29:26.769Z,17.11
2022-09-23T13:31:40.416Z,17.07
2022-09-23T13:33:52.436Z,17.10
2022-09-23T13:36:04.528Z,17.14
2022-09-23T13:38:16.622Z,17.08
2022-09-23T13:40:28.804Z,16.98
2022-09-23T13:42:40.794Z,16.90
2022-09-23T13:44:53.864Z,16.86
2022-09-23T13:47:05.941Z,16.80
2022-09-23T13:49:18.049Z,16.85
2022-09-23T13:51:37.586Z,16.85
2022-09-23T13:58:48.356Z,16.80
2022-09-23T14:02:15.655Z,16.78
2022-09-23T14:04:30.232Z,16.83
2022-09-23T14:07:09.285Z,16.95
2022-09-23T14:08:55.760Z,16.98
2022-09-23T14:11:47.965Z,16.98
2022-09-23T14:13:28.442Z,16.96
2022-09-23T14:17:24.202Z,17.08
2022-09-23T14:19:02.992Z,17.11
2022-09-23T14:21:15.826Z,17.15
2022-09-23T14:23:30.583Z,17.26
2022-09-23T14:28:17.523Z,17.33
2022-09-23T14:30:33.641Z,17.32
2022-09-23T14:32:48.162Z,17.15
2022-09-23T14:35:01.270Z,17.00
2022-09-23T14:37:17.353Z,16.88
2022-09-23T14:39:27.906Z,16.75
2022-09-23T14:41:40.116Z,16.65
2022-09-23T14:43:56.718Z,16.55
2022-09-23T14:46:23.265Z,16.38
2022-09-23T14:48:25.390Z,16.27
2022-09-23T14:50:42.045Z,16.14
2022-09-23T14:52:57.635Z,16.06
2022-09-23T14:55:09.672Z,15.99
2022-09-23T14:57:23.287Z,15.97
2022-09-23T14:59:39.873Z,15.89
2022-09-23T15:01:55.468Z,15.86
2022-09-23T15:04:07.548Z,15.85
2022-09-23T15:06:41.538Z,15.85
2022-09-23T15:08:57.822Z,15.79
2022-09-23T15:10:52.825Z,15.78
2022-09-23T15:13:05.433Z,15.78
2022-09-23T15:15:17.558Z,15.76
2022-09-23T15:17:33.042Z,15.74
2022-09-23T15:19:46.149Z,15.68
2022-09-23T15:21:59.722Z,15.68
2022-09-23T15:24:16.445Z,15.63
2022-09-23T15:27:49.966Z,15.61
2022-09-23T15:30:03.107Z,15.57
2022-09-23T15:32:16.174Z,15.52
2022-09-23T15:34:29.755Z,15.51
2022-09-23T15:36:43.497Z,15.45
2022-09-23T15:38:58.911Z,15.43
2022-09-23T15:41:14.524Z,15.39
2022-09-23T15:43:30.073Z,15.38
2022-09-23T15:45:43.183Z,15.35
2022-09-23T15:47:58.725Z,15.33
2022-09-23T15:50:14.318Z,15.28
2022-09-23T15:52:27.911Z,15.27
2022-09-23T15:54:43.517Z,15.24
2022-09-23T15:56:59.062Z,15.21
2022-09-23T15:59:14.662Z,15.20
2022-09-23T16:01:28.343Z,15.19
2022-09-23T16:03:40.359Z,15.23
2022-09-23T16:05:55.918Z,15.20
2022-09-23T16:08:11.510Z,15.17
2022-09-23T16:10:25.086Z,15.17
2022-09-23T16:12:38.685Z,15.13
2022-09-23T16:14:52.282Z,15.13
2022-09-23T16:17:04.343Z,15.08
2022-09-23T16:19:18.427Z,15.03
2022-09-23T16:21:36.491Z,14.95
2022-09-23T16:23:50.088Z,14.87
2022-09-23T16:26:03.687Z,14.81
2022-09-23T16:28:16.756Z,14.72
2022-09-23T16:30:32.339Z,14.65
2022-09-23T16:32:47.950Z,14.52
2022-09-23T16:33:47.930Z,14.44
2022-09-23T16:36:00.985Z,14.34
2022-09-23T16:38:16.621Z,14.17
2022-09-23T16:40:31.250Z,13.99
2022-09-23T16:42:46.740Z,13.81
2022-09-23T16:45:04.804Z,13.65
2022-09-23T16:47:20.436Z,13.54
2022-09-23T16:49:36.024Z,13.38
2022-09-23T16:51:51.645Z,13.22
2022-09-23T16:54:04.761Z,13.06
2022-09-23T16:56:27.438Z,12.95
2022-09-23T16:58:40.902Z,12.71
2022-09-23T17:00:56.523Z,12.60
2022-09-23T17:03:17.101Z,12.44
2022-09-23T17:05:31.703Z,12.31
2022-09-23T17:07:47.278Z,12.20
2022-09-23T17:10:00.413Z,12.08
2022-09-23T17:12:14.053Z,12.02
2022-09-23T17:24:48.684Z,11.46
2022-09-23T17:28:13.407Z,11.31
2022-09-23T17:29:49.531Z,11.24
2022-09-23T17:34:12.200Z,11.09
2022-09-23T17:36:19.725Z,11.03
2022-09-23T17:38:32.185Z,10.95
2022-09-23T17:40:48.825Z,10.86
2022-09-23T17:43:04.333Z,10.83
2022-09-23T17:45:17.452Z,10.80
2022-09-23T17:47:37.317Z,10.76
2022-09-23T17:49:51.298Z,10.74
2022-09-23T17:52:04.262Z,10.71
2022-09-23T17:54:23.345Z,10.70
2022-09-23T17:56:39.226Z,10.68
2022-09-23T17:58:54.883Z,10.60
2022-09-23T18:01:09.456Z,10.56
2022-09-23T18:03:25.024Z,10.53
2022-09-23T18:05:45.182Z,10.47
2022-09-23T18:08:42.298Z,10.43
2022-09-23T18:12:47.646Z,10.37
2022-09-23T18:16:38.004Z,10.34
2022-09-23T18:21:53.659Z,10.25
2022-09-23T18:22:43.510Z,10.19
2022-09-23T18:24:55.526Z,10.17
2022-09-23T18:27:08.694Z,10.10
2022-09-23T18:30:46.876Z,10.06
2022-09-23T18:33:14.072Z,10.04
2022-09-23T18:34:57.694Z,10.01
2022-09-23T18:37:16.469Z,9.99
2022-09-23T18:39:30.132Z,9.99
2022-09-23T18:42:08.158Z,9.96
2022-09-23T18:45:37.600Z,9.94
2022-09-23T18:48:02.487Z,9.88
2022-09-23T18:49:48.655Z,9.82
2022-09-23T18:52:00.738Z,9.79
2022-09-23T18:54:15.761Z,9.78
2022-09-23T18:56:32.364Z,9.71
2022-09-23T18:58:46.972Z,9.68
2022-09-23T19:01:02.813Z,9.66
2022-09-23T19:16:38.633Z,9.50
2022-09-23T19:18:52.142Z,9.49
2022-09-23T19:21:09.582Z,9.48
2022-09-23T19:23:33.903Z,9.45
2022-09-23T19:25:39.730Z,9.45
2022-09-23T19:27:54.476Z,9.40
2022-09-23T19:30:07.567Z,9.42
2022-09-23T19:32:21.179Z,9.43
2022-09-23T19:34:37.254Z,9.40
2022-09-23T19:36:48.812Z,9.34
2022-09-23T19:39:04.763Z,9.38
2022-09-23T19:41:16.844Z,9.35
2022-09-23T19:43:31.581Z,9.32
2022-09-23T19:45:47.148Z,9.28
2022-09-23T19:48:00.763Z,9.25
2022-09-23T19:50:17.389Z,9.21
2022-09-23T19:52:32.503Z,9.18
2022-09-23T19:56:33.620Z,9.13
2022-09-23T19:58:19.829Z,9.12
2022-09-23T20:00:36.892Z,9.12
2022-09-23T20:02:49.986Z,9.09
2022-09-23T20:05:12.043Z,9.05
2022-09-23T20:07:21.147Z,9.05
2022-09-23T20:09:33.140Z,9.05
2022-09-23T20:11:46.233Z,9.02
2022-09-23T20:13:59.931Z,9.04
2022-09-23T20:16:12.039Z,9.04
2022-09-23T20:18:23.990Z,9.02
2022-09-23T20:20:36.043Z,8.99
2022-09-23T20:22:48.139Z,8.97
2022-09-23T20:25:01.044Z,8.94
2022-09-23T20:27:13.798Z,8.96
2022-09-23T20:29:25.928Z,8.97
2022-09-23T20:31:38.045Z,8.94
2022-09-23T20:33:51.582Z,8.97
2022-09-23T20:36:05.458Z,8.94
2022-09-23T20:38:17.545Z,8.93
2022-09-23T20:40:29.697Z,8.94
2022-09-23T20:42:41.696Z,8.96
2022-09-23T20:44:53.796Z,8.96
2022-09-23T20:47:07.798Z,8.93
2022-09-23T20:49:18.958Z,8.94
2022-09-23T20:51:31.113Z,8.96
2022-09-23T20:53:44.138Z,8.97
2022-09-23T20:55:56.213Z,8.91
2022-09-23T20:58:08.291Z,8.93
2022-09-23T21:00:21.884Z,8.91
2022-09-23T21:02:34.046Z,8.90
2022-09-23T21:04:46.035Z,8.88
2022-09-23T21:06:58.135Z,8.91
2022-09-23T21:09:10.201Z,8.91
2022-09-23T21:11:22.271Z,8.88
2022-09-23T21:13:34.401Z,8.90
2022-09-23T21:15:46.510Z,8.88
2022-09-23T21:17:58.528Z,8.91
2022-09-23T21:20:10.688Z,8.91
2022-09-23T21:22:23.687Z,8.88
2022-09-23T21:25:37.068Z,8.91
2022-09-23T21:27:47.870Z,8.93
2022-09-23T21:29:59.979Z,8.93
2022-09-23T21:32:13.524Z,8.94
2022-09-23T21:34:25.617Z,8.94
2022-09-23T21:36:37.715Z,8.97
2022-09-23T21:38:49.801Z,8.96
2022-09-23T21:41:01.898Z,8.96
2022-09-23T21:43:14.941Z,8.96
2022-09-23T21:45:27.014Z,8.96
2022-09-23T21:47:40.097Z,8.91
2022-09-23T21:49:52.491Z,8.93
2022-09-23T21:52:05.595Z,8.94
2022-09-23T21:54:17.648Z,8.96
2022-09-23T21:56:30.720Z,8.94
2022-09-23T21:58:42.807Z,8.91
2022-09-23T22:00:56.693Z,8.93
2022-09-23T22:03:08.802Z,8.94
2022-09-23T22:05:22.308Z,8.90
2022-09-23T22:07:35.393Z,8.90
2022-09-23T22:09:47.468Z,8.88
2022-09-23T22:12:00.559Z,8.87
2022-09-23T22:14:12.702Z,8.88
2022-09-23T22:16:24.821Z,8.88
2022-09-23T22:18:37.871Z,8.88
2022-09-23T22:20:48.948Z,8.88
2022-09-23T22:23:02.849Z,8.91
2022-09-23T22:25:14.162Z,8.90
2022-09-23T22:27:26.166Z,8.87
2022-09-23T22:29:38.248Z,8.86
2022-09-23T22:31:50.365Z,8.88
2022-09-23T22:34:02.419Z,8.87
2022-09-23T22:36:17.014Z,8.87
2022-09-23T22:38:29.102Z,8.87
2022-09-23T22:40:41.273Z,8.86
2022-09-23T22:42:54.760Z,8.86
2022-09-23T22:45:06.858Z,8.84
2022-09-23T22:47:20.473Z,8.83
2022-09-23T22:49:32.531Z,8.81
2022-09-23T22:51:44.618Z,8.79
2022-09-23T22:53:56.704Z,8.81
2022-09-23T22:56:09.776Z,8.83
2022-09-23T22:58:32.342Z,8.86
2022-09-23T23:00:35.439Z,8.86
2022-09-23T23:02:49.048Z,8.86
2022-09-23T23:05:02.632Z,8.86
2022-09-23T23:07:16.214Z,8.86
2022-09-23T23:09:28.340Z,8.88
2022-09-23T23:11:41.874Z,8.88
2022-09-23T23:13:54.955Z,8.87
2022-09-23T23:16:08.604Z,8.87
2022-09-23T23:18:21.635Z,8.90
2022-09-23T23:20:33.732Z,8.88
2022-09-23T23:22:45.817Z,8.90
2022-09-23T23:24:57.897Z,8.88
2022-09-23T23:27:10.002Z,8.88
2022-09-23T23:29:23.072Z,8.88
2022-09-23T23:31:36.742Z,8.87
2022-09-23T23:33:49.743Z,8.86
2022-09-23T23:36:01.828Z,8.86
2022-09-23T23:38:15.423Z,8.86
2022-09-23T23:40:29.075Z,8.87
2022-09-23T23:42:42.167Z,8.86
2022-09-23T23:44:55.721Z,8.86
2022-09-23T23:47:07.811Z,8.83
2022-09-23T23:49:22.236Z,8.84
2022-09-23T23:51:34.468Z,8.81
2022-09-23T23:53:46.571Z,8.76
2022-09-23T23:56:00.129Z,8.76
2022-09-23T23:58:13.232Z,8.71
